Time;durP1;ratioP1;P1;durP2;ratioP2;P2;SDS_P1;SDS_P2;PMS_P1;PMS_P2;Temp;Humidity;BMP_temperature;BMP_pressure;BME280_temperature;BME280_humidity;BME280_pressure;Samples;Min_cycle;Max_cycle;Signal;HPM_P1;HPM_P2
2022/10/17 00:01:53;;;;;;;8.68;3.42;;;;;;;26.43;100.00;97380.78;6235886;23;20004;-88
2022/10/17 00:04:19;;;;;;;8.95;3.20;;;;;;;26.38;100.00;97362.53;6210138;23;20018;-86
2022/10/17 00:06:44;;;;;;;7.50;3.00;;;;;;;26.78;100.00;97372.06;6209273;23;20345;-87
2022/10/17 00:09:10;;;;;;;10.68;3.20;;;;;;;25.83;100.00;97372.13;6208669;23;20000;-88
2022/10/17 00:11:35;;;;;;;8.68;2.70;;;;;;;26.19;100.00;97355.44;6209055;23;20020;-87
2022/10/17 00:14:01;;;;;;;9.80;3.22;;;;;;;27.01;100.00;97363.59;6234978;23;20004;-86
2022/10/17 00:16:35;;;;;;;9.02;2.80;;;;;;;26.20;100.00;97373.16;6234906;23;20008;-86
2022/10/17 00:19:00;;;;;;;7.07;2.50;;;;;;;25.93;100.00;97373.91;6206864;23;20012;-86
2022/10/17 00:21:26;;;;;;;7.63;2.13;;;;;;;25.76;100.00;97370.16;6235092;23;20150;-87
2022/10/17 00:23:52;;;;;;;8.77;2.72;;;;;;;26.06;100.00;97371.78;6206925;23;20004;-87
2022/10/17 00:26:19;;;;;;;7.72;2.40;;;;;;;25.27;100.00;97367.50;6235770;23;20008;-87
2022/10/17 00:28:50;;;;;;;7.10;2.50;;;;;;;25.33;100.00;97374.97;6209748;23;20019;-87
2022/10/17 00:31:17;;;;;;;10.60;2.70;;;;;;;25.46;100.00;97383.56;6235750;23;20006;-87
2022/10/17 00:33:46;;;;;;;7.18;2.30;;;;;;;24.86;100.00;97386.31;6214442;23;20055;-87
2022/10/17 00:36:17;;;;;;;8.05;2.42;;;;;;;25.93;100.00;97384.59;6235728;23;20011;-87
2022/10/17 00:38:45;;;;;;;9.25;2.80;;;;;;;24.74;100.00;97368.75;6234411;23;20015;-86
2022/10/17 00:41:14;;;;;;;8.00;2.20;;;;;;;26.47;100.00;97367.00;6207564;23;20027;-87
2022/10/17 00:44:04;;;;;;;7.43;2.58;;;;;;;25.04;100.00;97355.28;6208915;23;20318;-87
2022/10/17 00:46:34;;;;;;;7.43;2.75;;;;;;;25.85;100.00;97354.09;6208033;23;20688;-87
2022/10/17 00:49:05;;;;;;;6.80;2.38;;;;;;;25.90;100.00;97351.84;6233107;23;20008;-86
2022/10/17 00:51:44;;;;;;;8.77;2.50;;;;;;;26.51;100.00;97351.47;6208130;23;20502;-85
2022/10/17 00:54:12;;;;;;;7.40;2.33;;;;;;;26.61;100.00;97349.63;6208682;23;20003;-87
2022/10/17 00:56:39;;;;;;;9.18;2.35;;;;;;;26.71;100.00;97355.75;6210305;23;20036;-87
2022/10/17 00:59:06;;;;;;;7.80;2.35;;;;;;;25.89;100.00;97354.69;6210446;23;20077;-87
2022/10/17 01:01:31;;;;;;;8.45;2.20;;;;;;;25.47;100.00;97353.22;6208349;23;20776;-87
2022/10/17 01:03:56;;;;;;;6.32;2.10;;;;;;;26.27;100.00;97342.19;6210115;23;20004;-86
2022/10/17 01:06:22;;;;;;;10.40;2.30;;;;;;;26.33;100.00;97346.94;6237152;23;20000;-86
2022/10/17 01:08:47;;;;;;;9.23;2.20;;;;;;;25.50;100.00;97330.75;6209999;23;20477;-86
2022/10/17 01:11:22;;;;;;;8.45;2.17;;;;;;;25.98;100.00;97342.25;6235722;23;20477;-87
2022/10/17 01:13:54;;;;;;;6.97;1.90;;;;;;;25.87;100.00;97338.81;6210015;23;20091;-86
2022/10/17 01:16:44;;;;;;;9.65;1.98;;;;;;;26.95;100.00;97329.44;6235479;23;20000;-87
2022/10/17 01:19:57;;;;;;;7.60;1.95;;;;;;;26.81;100.00;97345.00;6210015;23;20012;-86
2022/10/17 01:22:32;;;;;;;6.93;1.80;;;;;;;26.44;100.00;97335.19;6061585;23;20097;-86
2022/10/17 01:25:17;;;;;;;6.80;1.90;;;;;;;24.90;100.00;97333.53;6058905;23;20093;-86
2022/10/17 01:27:48;;;;;;;7.60;1.80;;;;;;;24.39;100.00;97376.19;6086675;23;20050;-86
2022/10/17 01:30:51;;;;;;;7.93;2.00;;;;;;;25.62;100.00;97396.31;6083773;23;20014;-87
2022/10/17 01:33:29;;;;;;;6.00;1.73;;;;;;;26.13;100.00;97367.56;6059852;23;20093;-87
2022/10/17 01:36:04;;;;;;;7.22;2.03;;;;;;;26.83;100.00;97377.78;6084187;23;20025;-86
2022/10/17 01:38:35;;;;;;;8.13;1.90;;;;;;;26.88;100.00;97361.28;6060596;23;20344;-86
2022/10/17 01:41:26;;;;;;;7.63;1.92;;;;;;;27.29;100.00;97383.06;6084964;23;20135;-87
2022/10/17 01:43:58;;;;;;;6.60;2.03;;;;;;;26.48;100.00;97365.97;6061441;23;20105;-86
2022/10/17 01:46:51;;;;;;;7.50;2.05;;;;;;;26.11;100.00;97390.91;6085670;23;20011;-86
2022/10/17 01:49:22;;;;;;;8.63;2.05;;;;;;;26.37;100.00;97393.78;6080920;23;20022;-87
2022/10/17 01:51:54;;;;;;;8.15;1.85;;;;;;;26.14;100.00;97403.13;6084551;23;20006;-87
2022/10/17 01:54:37;;;;;;;6.47;1.80;;;;;;;26.05;100.00;97387.00;6084138;23;20020;-86
2022/10/17 01:57:07;;;;;;;8.13;1.90;;;;;;;26.11;100.00;97384.72;6084289;23;20022;-87
2022/10/17 01:59:39;;;;;;;8.23;1.77;;;;;;;25.48;100.00;97388.75;6195891;23;20016;-87
2022/10/17 02:02:06;;;;;;;7.57;1.83;;;;;;;24.81;100.00;97388.53;6245449;22;20054;-96
2022/10/17 02:04:33;;;;;;;7.78;1.98;;;;;;;26.57;100.00;97374.97;6223072;23;20016;-96
2022/10/17 02:07:11;;;;;;;7.18;1.80;;;;;;;26.23;100.00;97389.75;6226193;23;20058;-96
2022/10/17 02:09:37;;;;;;;8.40;1.60;;;;;;;25.30;100.00;97388.56;6224975;23;20015;-96
2022/10/17 02:12:26;;;;;;;7.55;1.92;;;;;;;26.16;100.00;97383.28;6226486;23;20102;-96
2022/10/17 02:15:19;;;;;;;6.40;1.75;;;;;;;26.02;100.00;97395.28;6226205;23;20011;-96
2022/10/17 02:18:18;;;;;;;7.85;1.73;;;;;;;25.46;100.00;97385.38;6227257;23;20456;-96
2022/10/17 02:21:06;;;;;;;6.72;1.60;;;;;;;25.95;100.00;97391.47;6228860;23;20019;-96
2022/10/17 02:23:45;;;;;;;8.80;1.73;;;;;;;24.60;100.00;97402.75;6221074;23;20007;-96
2022/10/17 02:26:29;;;;;;;10.93;1.95;;;;;;;25.48;100.00;97397.59;6217988;23;20039;-95
2022/10/17 02:29:13;;;;;;;7.00;1.58;;;;;;;26.15;100.00;97419.03;6219356;23;20012;-94
2022/10/17 02:31:42;;;;;;;7.05;1.45;;;;;;;25.28;100.00;97406.56;6216529;23;20095;-96
2022/10/17 02:34:16;;;;;;;4.55;0.82;;;;;;;23.30;100.00;97415.59;6217888;23;20019;-96
2022/10/17 02:37:04;;;;;;;7.25;1.20;;;;;;;24.31;100.00;97527.88;6222040;23;20440;-96
2022/10/17 02:39:56;;;;;;;9.73;1.50;;;;;;;22.30;100.00;98053.88;6220275;23;19996;-94
2022/10/17 02:42:24;;;;;;;4.25;0.75;;;;;;;21.75;100.00;97576.31;6217258;23;20008;-95
2022/10/17 02:44:51;;;;;;;3.85;0.80;;;;;;;23.36;100.00;97473.59;6216037;23;20035;-93
2022/10/17 02:47:22;;;;;;;4.10;0.80;;;;;;;23.33;100.00;97455.22;6216492;23;20186;-94
2022/10/17 02:49:54;;;;;;;4.25;0.90;;;;;;;24.27;100.00;97458.00;6217308;23;20031;-95
2022/10/17 02:52:54;;;;;;;5.25;1.00;;;;;;;23.66;100.00;97435.63;6243858;23;20227;-95
2022/10/17 02:55:28;;;;;;;7.25;1.00;;;;;;;27.48;100.00;97418.75;6216890;23;20008;-95
2022/10/17 02:57:59;;;;;;;2.63;0.70;;;;;;;26.88;100.00;97423.66;6218355;23;20477;-95
2022/10/17 03:00:25;;;;;;;5.88;0.93;;;;;;;27.77;100.00;97413.16;6216549;23;20015;-95
2022/10/17 03:03:00;;;;;;;4.43;0.90;;;;;;;28.50;100.00;97436.06;6217721;23;20090;-96
2022/10/17 03:05:28;;;;;;;5.28;1.00;;;;;;;28.37;100.00;97433.00;6217778;23;20004;-95
2022/10/17 03:07:55;;;;;;;6.63;0.95;;;;;;;29.37;100.00;97443.97;6216477;23;20134;-95
2022/10/17 03:10:22;;;;;;;6.90;1.10;;;;;;;27.89;100.00;97437.81;6216637;23;20004;-95
2022/10/17 03:12:48;;;;;;;6.95;1.20;;;;;;;27.21;100.00;97440.06;6215687;23;20012;-96
2022/10/17 03:15:13;;;;;;;6.25;1.20;;;;;;;27.13;100.00;97445.31;6216460;23;20000;-94
2022/10/17 03:17:39;;;;;;;5.97;1.30;;;;;;;26.79;100.00;97447.78;6216873;23;20008;-96
2022/10/17 03:20:05;;;;;;;8.10;1.40;;;;;;;29.16;100.00;97443.53;6246294;23;20000;-96
2022/10/17 03:22:33;;;;;;;7.07;1.30;;;;;;;30.48;100.00;97449.81;6244871;23;20004;-95
2022/10/17 03:24:59;;;;;;;6.63;1.30;;;;;;;30.95;100.00;97462.44;6218872;23;20023;-96
2022/10/17 03:27:25;;;;;;;9.02;1.30;;;;;;;27.33;100.00;97440.66;6221115;23;20004;-94
2022/10/17 03:29:50;;;;;;;7.38;1.33;;;;;;;24.40;100.00;97454.28;6220044;23;20023;-94
2022/10/17 03:32:16;;;;;;;7.63;1.45;;;;;;;25.18;100.00;97422.56;6220608;23;20665;-96
2022/10/17 03:34:41;;;;;;;8.68;1.83;;;;;;;25.79;100.00;97434.81;6227671;23;20434;-96
2022/10/17 03:37:07;;;;;;;6.95;1.33;;;;;;;25.43;100.00;97455.03;6226956;23;20008;-96
2022/10/17 03:39:32;;;;;;;12.20;1.50;;;;;;;25.45;100.00;97456.59;6220801;23;20004;-94
2022/10/17 03:41:58;;;;;;;6.43;1.60;;;;;;;25.26;100.00;97449.41;6223097;23;20054;-96
2022/10/17 03:44:23;;;;;;;8.13;1.55;;;;;;;24.76;100.00;97450.28;6224506;23;20015;-96
2022/10/17 03:46:48;;;;;;;9.05;1.90;;;;;;;24.84;100.00;97457.56;6224377;23;20018;-94
2022/10/17 03:49:16;;;;;;;11.80;1.90;;;;;;;25.01;100.00;97451.59;6223242;23;20004;-96
2022/10/17 03:51:41;;;;;;;8.65;1.60;;;;;;;23.89;100.00;97467.47;6222735;23;20014;-96
2022/10/17 03:54:07;;;;;;;13.18;1.73;;;;;;;24.43;100.00;97446.88;6219005;23;20011;-96
2022/10/17 03:56:32;;;;;;;9.23;1.83;;;;;;;23.43;100.00;97457.97;6222466;23;20016;-96
2022/10/17 03:58:58;;;;;;;10.63;2.05;;;;;;;24.22;100.00;97457.59;6224405;23;20304;-94
2022/10/17 04:01:23;;;;;;;7.38;1.40;;;;;;;24.74;100.00;97449.56;6222603;23;20035;-96
2022/10/17 04:03:52;;;;;;;9.05;2.30;;;;;;;24.22;100.00;97470.91;6220896;23;20012;-95
2022/10/17 04:06:24;;;;;;;8.40;1.80;;;;;;;24.79;100.00;97450.00;6218476;23;20016;-96
2022/10/17 04:08:50;;;;;;;7.47;1.52;;;;;;;23.83;100.00;97471.47;6217809;23;20453;-95
2022/10/17 04:11:18;;;;;;;7.85;1.70;;;;;;;23.90;100.00;97482.47;6216267;23;20000;-94
2022/10/17 04:13:44;;;;;;;8.75;1.40;;;;;;;23.42;100.00;97490.88;6244511;23;20539;-95
2022/10/17 04:16:13;;;;;;;9.93;1.80;;;;;;;22.89;100.00;97491.56;6217182;23;20031;-95
2022/10/17 04:18:39;;;;;;;10.20;1.73;;;;;;;23.39;100.00;97481.31;6217326;23;20016;-95
2022/10/17 04:21:06;;;;;;;8.02;1.52;;;;;;;23.93;100.00;97473.38;6217261;23;20410;-95
2022/10/17 04:23:31;;;;;;;7.68;1.80;;;;;;;23.33;100.00;97479.16;6217494;23;20012;-94
2022/10/17 04:25:58;;;;;;;9.10;1.48;;;;;;;24.48;100.00;97483.78;6217124;23;20010;-96
2022/10/17 04:28:25;;;;;;;9.82;1.50;;;;;;;24.89;100.00;97479.34;6220061;23;20816;-95
2022/10/17 04:30:56;;;;;;;15.07;2.03;;;;;;;24.13;100.00;97487.66;6216194;23;20008;-96
2022/10/17 04:33:22;;;;;;;9.13;1.73;;;;;;;23.64;100.00;97480.13;6217942;23;20386;-95
2022/10/17 04:36:01;;;;;;;10.60;1.75;;;;;;;24.05;100.00;97482.13;6215867;23;20020;-95
2022/10/17 04:38:28;;;;;;;9.52;1.33;;;;;;;24.53;100.00;97476.25;6217307;23;20091;-95
2022/10/17 04:40:56;;;;;;;13.85;1.50;;;;;;;24.99;100.00;97490.06;6217553;23;20460;-96
2022/10/17 04:43:22;;;;;;;13.88;1.60;;;;;;;23.08;100.00;97489.09;6219332;23;20011;-96
2022/10/17 04:45:47;;;;;;;9.68;1.42;;;;;;;22.69;100.00;97491.31;6217025;23;20114;-94
2022/10/17 04:48:12;;;;;;;10.77;1.73;;;;;;;23.61;100.00;97495.53;6218358;23;20123;-95
2022/10/17 04:50:38;;;;;;;10.60;1.67;;;;;;;23.06;100.00;97495.50;6218205;23;20111;-94
2022/10/17 04:53:03;;;;;;;7.88;1.30;;;;;;;24.16;100.00;97509.56;6216792;23;20091;-95
2022/10/17 04:55:29;;;;;;;8.55;1.27;;;;;;;24.47;100.00;97522.94;6217022;23;20015;-95
2022/10/17 04:57:54;;;;;;;10.07;1.98;;;;;;;22.83;100.00;97536.25;6216834;23;20667;-94
2022/10/17 05:00:20;;;;;;;11.50;1.77;;;;;;;23.60;100.00;97533.75;6219109;23;20015;-96
2022/10/17 05:02:46;;;;;;;12.27;1.48;;;;;;;23.65;100.00;97523.56;6219024;23;20043;-94
2022/10/17 05:05:11;;;;;;;8.73;1.40;;;;;;;22.66;100.00;97531.44;6218794;23;20458;-96
2022/10/17 05:07:40;;;;;;;8.63;1.65;;;;;;;23.83;100.00;97521.22;6219289;23;20004;-94
2022/10/17 05:10:06;;;;;;;16.10;1.95;;;;;;;24.22;100.00;97539.31;6218168;23;20011;-95
2022/10/17 05:12:31;;;;;;;9.70;1.42;;;;;;;22.98;100.00;97546.66;6218418;23;20065;-95
2022/10/17 05:14:57;;;;;;;9.57;1.38;;;;;;;23.31;100.00;97542.28;6244749;23;20035;-94
2022/10/17 05:17:22;;;;;;;11.43;1.73;;;;;;;23.47;100.00;97531.25;6216231;23;20131;-95
2022/10/17 05:19:47;;;;;;;12.57;1.75;;;;;;;22.75;100.00;97537.84;6216961;23;20007;-95
2022/10/17 05:22:16;;;;;;;10.07;1.50;;;;;;;23.28;100.00;97526.56;6217679;23;20011;-95
2022/10/17 05:24:41;;;;;;;7.15;1.40;;;;;;;23.01;100.00;97536.59;6217607;23;20099;-94
2022/10/17 05:27:07;;;;;;;9.32;1.75;;;;;;;23.44;100.00;97556.28;6243334;23;20016;-96
2022/10/17 05:29:33;;;;;;;10.50;1.70;;;;;;;22.99;100.00;97545.66;6219492;23;20012;-96
2022/10/17 05:31:59;;;;;;;11.35;1.70;;;;;;;23.97;100.00;97538.72;6218997;23;20012;-96
2022/10/17 05:34:24;;;;;;;12.57;1.63;;;;;;;24.28;100.00;97544.13;6219173;23;20023;-95
2022/10/17 05:36:49;;;;;;;9.02;1.45;;;;;;;25.03;100.00;97560.81;6220507;23;20058;-96
2022/10/17 05:39:18;;;;;;;10.18;1.50;;;;;;;23.89;100.00;97551.84;6219651;23;20010;-94
2022/10/17 05:41:44;;;;;;;8.13;1.42;;;;;;;24.01;100.00;97572.13;6221373;23;20008;-95
2022/10/17 05:44:12;;;;;;;12.05;1.58;;;;;;;23.59;100.00;97586.13;6218991;23;20004;-95
2022/10/17 05:46:38;;;;;;;9.63;1.63;;;;;;;23.68;100.00;97598.69;6219594;23;20386;-95
2022/10/17 05:49:03;;;;;;;11.15;1.70;;;;;;;23.05;100.00;97597.53;6219381;23;20066;-96
2022/10/17 05:51:29;;;;;;;11.82;1.70;;;;;;;23.61;100.00;97612.63;6218899;23;20000;-94
2022/10/17 05:53:54;;;;;;;11.65;1.50;;;;;;;24.35;100.00;97595.91;6220305;23;20093;-94
2022/10/17 05:56:19;;;;;;;9.38;1.70;;;;;;;24.00;100.00;97613.03;6219117;23;20435;-95
2022/10/17 05:58:46;;;;;;;12.40;1.77;;;;;;;22.78;100.00;97615.53;6218993;23;20028;-94
2022/10/17 06:01:12;;;;;;;10.80;2.25;;;;;;;23.18;100.00;97617.75;6221985;23;20039;-96
2022/10/17 06:03:37;;;;;;;11.23;1.83;;;;;;;23.02;100.00;97596.81;6221358;23;20008;-96
2022/10/17 06:06:07;;;;;;;13.15;1.70;;;;;;;22.48;100.00;97610.75;6231991;23;19992;-95
2022/10/17 06:08:33;;;;;;;10.13;1.50;;;;;;;23.38;100.00;97609.97;6239118;23;20100;-96
2022/10/17 06:10:59;;;;;;;11.15;1.70;;;;;;;23.26;100.00;97616.31;6237905;23;20008;-95
2022/10/17 06:13:24;;;;;;;14.40;1.92;;;;;;;23.28;100.00;97628.50;6225779;23;20011;-94
2022/10/17 06:15:50;;;;;;;15.80;1.80;;;;;;;22.40;100.00;97634.41;6220046;23;20004;-95
2022/10/17 06:18:16;;;;;;;9.60;1.55;;;;;;;22.55;100.00;97632.41;6219211;23;20091;-95
2022/10/17 06:20:43;;;;;;;9.63;1.50;;;;;;;22.38;100.00;97634.53;6219194;23;20012;-95
2022/10/17 06:23:09;;;;;;;15.90;1.80;;;;;;;23.16;100.00;97638.31;6217917;23;20063;-96
2022/10/17 06:25:35;;;;;;;11.68;1.95;;;;;;;23.50;100.00;97642.75;6216024;23;20008;-95
2022/10/17 06:28:01;;;;;;;11.27;2.53;;;;;;;23.02;100.00;97649.16;6217334;23;20039;-94
2022/10/17 06:30:27;;;;;;;10.00;1.70;;;;;;;24.07;100.00;97642.66;6218559;23;20062;-96
2022/10/17 06:32:53;;;;;;;12.57;1.67;;;;;;;22.59;100.00;97652.44;6219285;23;20011;-95
2022/10/17 06:35:20;;;;;;;13.40;1.80;;;;;;;22.53;100.00;97661.72;6220072;23;20019;-95
2022/10/17 06:37:46;;;;;;;12.52;1.80;;;;;;;22.54;100.00;97673.22;6219421;23;20122;-95
2022/10/17 06:40:13;;;;;;;9.55;1.77;;;;;;;22.63;100.00;97664.53;6220899;23;20011;-96
2022/10/17 06:42:40;;;;;;;11.77;1.83;;;;;;;22.81;100.00;97680.88;6218296;23;20012;-95
2022/10/17 06:45:19;;;;;;;12.00;1.95;;;;;;;23.40;100.00;97687.03;6220170;23;20050;-95
2022/10/17 06:48:31;;;;;;;13.20;1.90;;;;;;;22.93;100.00;97677.28;6234540;23;20004;-94
2022/10/17 06:51:04;;;;;;;16.88;2.10;;;;;;;23.04;100.00;97704.88;6098502;23;20014;-95
2022/10/17 06:53:32;;;;;;;17.17;1.83;;;;;;;23.62;100.00;97695.00;6096283;23;20029;-95
2022/10/17 06:56:01;;;;;;;12.20;1.88;;;;;;;23.01;100.00;97714.75;6099409;23;20020;-94
2022/10/17 06:58:35;;;;;;;13.02;2.15;;;;;;;24.05;100.00;97709.38;6098982;23;20021;-96
2022/10/17 07:01:03;;;;;;;11.43;2.15;;;;;;;24.28;100.00;97714.66;6126920;23;20049;-96
2022/10/17 07:03:29;;;;;;;14.63;1.90;;;;;;;23.78;100.00;97721.22;6128151;23;20013;-94
2022/10/17 07:05:55;;;;;;;14.80;1.70;;;;;;;22.49;100.00;97714.25;6128673;23;20116;-94
2022/10/17 07:08:39;;;;;;;;;;;;;;;;;;;;;
2022/10/17 07:11:10;;;;;;;10.80;1.50;;;;;;;23.65;100.00;97734.69;6147513;23;20591;-95
2022/10/17 07:13:35;;;;;;;10.88;1.88;;;;;;;22.31;100.00;97726.19;6127655;23;20017;-96
2022/10/17 07:16:01;;;;;;;12.52;1.55;;;;;;;23.10;100.00;97746.94;6126165;23;20048;-94
2022/10/17 07:18:26;;;;;;;13.02;1.92;;;;;;;22.63;100.00;97749.56;6133028;23;20483;-94
2022/10/17 07:20:53;;;;;;;13.38;1.80;;;;;;;23.55;100.00;97759.47;6134327;23;20278;-94
2022/10/17 07:23:19;;;;;;;10.27;1.85;;;;;;;22.29;100.00;97762.66;6135836;23;20005;-93
2022/10/17 07:25:52;;;;;;;9.00;1.60;;;;;;;21.76;100.00;97763.75;6240197;23;20033;-95
2022/10/17 07:28:18;;;;;;;9.50;1.85;;;;;;;22.77;100.00;97768.00;6251544;23;20004;-93
2022/10/17 07:30:46;;;;;;;11.65;1.85;;;;;;;22.65;100.00;97787.50;6244158;23;20020;-94
2022/10/17 07:33:12;;;;;;;17.60;2.30;;;;;;;23.32;100.00;97778.91;6249742;23;20007;-94
2022/10/17 07:35:41;;;;;;;14.40;1.83;;;;;;;23.04;100.00;97793.47;6245903;23;20004;-92
2022/10/17 07:38:06;;;;;;;13.32;1.83;;;;;;;22.17;100.00;97796.25;6245014;23;20028;-93
2022/10/17 07:40:32;;;;;;;14.75;1.98;;;;;;;22.57;100.00;97803.19;6239101;23;20587;-93
2022/10/17 07:42:57;;;;;;;9.77;1.42;;;;;;;22.74;100.00;97810.75;6237760;23;20083;-94
2022/10/17 07:45:25;;;;;;;11.48;1.88;;;;;;;21.60;100.00;97824.16;6241767;23;20039;-93
2022/10/17 07:47:55;;;;;;;15.68;2.35;;;;;;;21.74;100.00;97824.06;6236550;23;20023;-94
2022/10/17 07:50:20;;;;;;;11.18;1.88;;;;;;;22.66;100.00;97826.44;6238264;23;20449;-96
2022/10/17 07:52:45;;;;;;;9.32;1.60;;;;;;;22.44;100.00;97833.28;6239729;23;20004;-96
2022/10/17 07:55:11;;;;;;;14.13;1.77;;;;;;;22.39;100.00;97850.53;6240237;23;20547;-94
2022/10/17 07:57:36;;;;;;;11.93;2.35;;;;;;;22.67;100.00;97844.03;6241734;23;20008;-96
2022/10/17 08:00:02;;;;;;;13.57;1.90;;;;;;;22.44;100.00;97849.22;6240105;23;20446;-94
2022/10/17 08:02:27;;;;;;;11.07;1.55;;;;;;;22.38;100.00;97855.00;6236684;23;20016;-94
2022/10/17 08:04:53;;;;;;;13.70;2.20;;;;;;;22.35;100.00;97852.53;6237854;23;20000;-94
2022/10/17 08:07:19;;;;;;;15.98;1.98;;;;;;;23.26;100.00;97858.38;6239000;23;20008;-92
2022/10/17 08:09:47;;;;;;;20.27;2.47;;;;;;;22.45;100.00;97856.25;6241691;23;20193;-95
2022/10/17 08:12:14;;;;;;;12.25;2.42;;;;;;;22.13;100.00;97862.03;6243912;23;20010;-95
2022/10/17 08:14:40;;;;;;;17.92;2.30;;;;;;;22.85;100.00;97865.75;6239450;23;20071;-95
2022/10/17 08:17:06;;;;;;;14.23;2.25;;;;;;;23.04;100.00;97859.94;6240018;23;20004;-95
2022/10/17 08:19:31;;;;;;;10.20;2.00;;;;;;;23.14;100.00;97865.44;6244672;23;20056;-95
2022/10/17 08:21:58;;;;;;;9.63;1.50;;;;;;;21.94;100.00;97869.59;6242051;23;20099;-95
2022/10/17 08:24:24;;;;;;;9.32;1.63;;;;;;;21.65;100.00;97872.44;6241458;23;20008;-95
2022/10/17 08:26:49;;;;;;;12.30;1.92;;;;;;;23.01;100.00;97881.44;6241066;23;20489;-96
2022/10/17 08:29:15;;;;;;;14.90;1.70;;;;;;;21.79;100.00;97888.25;6241507;23;20008;-95
2022/10/17 08:31:41;;;;;;;13.80;2.17;;;;;;;21.99;100.00;97878.94;6241650;23;20004;-95
2022/10/17 08:34:07;;;;;;;16.55;2.72;;;;;;;22.39;100.00;97885.91;6241130;23;20019;-93
2022/10/17 08:36:33;;;;;;;12.77;1.90;;;;;;;23.00;100.00;97891.22;6237904;23;20109;-93
2022/10/17 08:39:25;;;;;;;14.02;2.00;;;;;;;22.30;100.00;97889.19;6250994;22;20027;-95
2022/10/17 08:42:38;;;;;;;14.13;1.92;;;;;;;22.66;100.00;97895.53;6269205;22;20082;-94
2022/10/17 08:45:34;;;;;;;14.60;2.10;;;;;;;23.31;100.00;97896.97;6214454;22;19999;-96
2022/10/17 08:48:04;;;;;;;17.38;2.42;;;;;;;23.72;100.00;97905.44;6244212;22;20441;-94
2022/10/17 08:50:47;;;;;;;16.55;2.10;;;;;;;22.54;100.00;97901.72;6244122;22;20037;-94
2022/10/17 08:53:20;;;;;;;;;;;;;;;22.50;100.00;97907.25;6246130;22;20054;-96
2022/10/17 08:55:50;;;;;;;15.95;2.15;;;;;;;23.17;100.00;97913.09;6246714;22;19903;-92
2022/10/17 08:58:22;;;;;;;14.95;1.83;;;;;;;24.11;100.00;97929.13;6245216;22;20082;-94
2022/10/17 09:01:16;;;;;;;15.02;2.10;;;;;;;24.33;100.00;97937.13;6243528;22;20020;-94
2022/10/17 09:04:11;;;;;;;11.20;1.75;;;;;;;24.95;100.00;97926.06;6250030;22;20086;-95
2022/10/17 09:07:01;;;;;;;14.10;2.00;;;;;;;25.66;100.00;97949.59;6252949;22;20011;-94
2022/10/17 09:17:03;;;;;;;15.15;2.08;;;;;;;24.06;100.00;97950.78;6282281;22;20003;-93
2022/10/17 09:19:58;;;;;;;11.85;1.65;;;;;;;25.01;100.00;97969.09;6260854;22;19999;-95
2022/10/17 09:23:04;;;;;;;21.45;2.22;;;;;;;24.83;100.00;97957.22;6264066;22;20030;-96
2022/10/17 09:26:49;;;;;;;15.40;2.10;;;;;;;24.45;100.00;97975.25;6261119;22;20015;-95
2022/10/17 09:29:27;;;;;;;11.68;2.15;;;;;;;24.36;100.00;97970.69;6260477;22;20007;-95
2022/10/17 09:39:30;;;;;;;16.40;1.67;;;;;;;25.59;95.54;97986.63;6285761;22;20396;-95
2022/10/17 09:42:01;;;;;;;16.20;2.10;;;;;;;26.95;96.73;97979.56;6285288;22;20086;-95
2022/10/17 09:44:33;;;;;;;10.60;1.77;;;;;;;26.77;90.32;97982.06;6258990;22;20015;-96
2022/10/17 09:47:41;;;;;;;14.10;2.17;;;;;;;28.03;89.87;97980.50;6250194;22;20069;-95
2022/10/17 09:50:56;;;;;;;13.13;2.38;;;;;;;25.15;97.70;97959.97;6250238;22;20014;-96
2022/10/17 09:53:44;;;;;;;10.77;1.95;;;;;;;23.28;100.00;97994.78;6254859;22;20011;-95
2022/10/17 09:56:16;;;;;;;9.57;1.60;;;;;;;24.67;100.00;97992.28;6255712;22;19999;-96
2022/10/17 10:01:28;;;;;;;12.90;2.15;;;;;;;24.97;95.93;97996.13;6208579;23;20025;-89
2022/10/17 10:04:12;;;;;;;15.88;2.00;;;;;;;25.50;95.49;98022.97;6179669;23;20074;-89
2022/10/17 10:06:39;;;;;;;13.88;2.00;;;;;;;25.87;87.59;98032.41;6181329;23;20130;-89
2022/10/17 10:09:19;;;;;;;16.27;1.77;;;;;;;25.99;91.69;98034.03;6207480;23;20004;-88
2022/10/17 10:11:55;;;;;;;12.15;1.50;;;;;;;23.93;92.95;98028.09;6181163;23;20042;-89
2022/10/17 10:14:36;;;;;;;13.75;1.65;;;;;;;23.78;97.58;98029.22;6212284;23;20043;-89
2022/10/17 10:17:36;;;;;;;10.93;1.83;;;;;;;24.35;92.39;98025.78;6182814;23;20008;-90
2022/10/17 10:20:23;;;;;;;14.07;2.00;;;;;;;26.53;87.21;98040.19;6210756;23;20004;-90
2022/10/17 10:23:13;;;;;;;11.45;1.77;;;;;;;24.86;89.33;98024.50;6209300;23;20016;-89
2022/10/17 10:25:52;;;;;;;13.52;1.60;;;;;;;25.33;88.54;98032.34;6184975;23;20000;-90
2022/10/17 10:28:17;;;;;;;12.77;1.95;;;;;;;25.03;89.09;98049.00;6209354;23;20344;-90
2022/10/17 10:30:48;;;;;;;12.57;1.90;;;;;;;24.59;91.77;98039.97;6202991;23;20107;-90
2022/10/17 10:33:14;;;;;;;12.27;2.55;;;;;;;23.93;89.90;98051.25;6178468;23;20335;-90
2022/10/17 10:35:40;;;;;;;15.05;1.95;;;;;;;24.94;91.19;98066.59;6206377;23;20016;-91
2022/10/17 10:38:16;;;;;;;12.85;2.13;;;;;;;24.29;91.56;98066.22;6204679;23;20337;-90
2022/10/17 10:41:06;;;;;;;9.77;1.73;;;;;;;23.42;92.78;98077.06;6204417;23;20028;-89
2022/10/17 10:43:45;;;;;;;9.25;1.63;;;;;;;24.03;89.44;98084.19;6164630;23;20011;-90
2022/10/17 10:46:24;;;;;;;11.98;1.67;;;;;;;23.40;92.12;98080.84;6202798;23;20082;-90
2022/10/17 10:48:59;;;;;;;10.45;1.70;;;;;;;23.47;92.86;98085.59;6205728;23;20001;-90
2022/10/17 10:51:31;;;;;;;11.88;1.40;;;;;;;24.59;90.82;98086.13;6205337;23;20019;-90
2022/10/17 10:54:21;;;;;;;18.20;2.10;;;;;;;25.30;90.01;98082.44;6203086;23;20004;-90
2022/10/17 10:56:51;;;;;;;7.20;1.60;;;;;;;24.64;88.50;98091.16;6199024;23;20446;-90
2022/10/17 10:59:20;;;;;;;9.82;1.70;;;;;;;23.89;88.79;98087.06;6175845;23;20435;-90
2022/10/17 11:02:18;;;;;;;8.75;1.40;;;;;;;24.80;86.19;98098.81;6202970;23;20016;-90
2022/10/17 11:04:52;;;;;;;12.80;1.92;;;;;;;24.92;85.83;98123.69;6207576;23;20019;-87
2022/10/17 11:07:29;;;;;;;12.20;1.60;;;;;;;24.92;87.02;98126.34;6207954;23;20087;-90
2022/10/17 11:10:02;;;;;;;12.43;1.70;;;;;;;25.24;87.34;98118.47;6209748;23;20016;-90
2022/10/17 11:12:35;;;;;;;6.65;1.35;;;;;;;25.63;83.77;98126.94;6236191;23;20042;-89
2022/10/17 11:15:15;;;;;;;9.27;1.47;;;;;;;25.71;82.23;98128.97;6210329;23;20030;-90
2022/10/17 11:18:09;;;;;;;15.13;1.95;;;;;;;23.55;85.12;98154.25;6235004;23;20051;-90
2022/10/17 11:20:51;;;;;;;8.57;1.38;;;;;;;24.64;84.69;98149.81;6233556;23;20016;-90
2022/10/17 11:23:47;;;;;;;13.43;2.00;;;;;;;24.48;84.58;98142.09;6208528;23;20012;-90
2022/10/17 11:26:24;;;;;;;8.75;1.30;;;;;;;25.20;84.60;98149.88;6236692;23;20031;-90
2022/10/17 11:28:55;;;;;;;13.07;1.58;;;;;;;25.67;84.46;98154.25;6233616;23;20004;-90
2022/10/17 11:31:24;;;;;;;6.72;1.25;;;;;;;24.96;85.10;98154.47;6209390;23;20079;-89
2022/10/17 11:33:53;;;;;;;12.88;1.60;;;;;;;26.35;81.38;98170.94;6238334;23;20380;-90
2022/10/17 11:36:23;;;;;;;11.30;1.52;;;;;;;26.53;79.45;98181.06;6237260;23;20047;-90
2022/10/17 11:38:55;;;;;;;12.45;1.58;;;;;;;26.16;79.53;98187.66;6210788;23;20038;-90
2022/10/17 11:41:31;;;;;;;8.80;1.40;;;;;;;25.83;78.67;98178.75;6230882;23;20123;-90
2022/10/17 11:44:10;;;;;;;11.43;1.48;;;;;;;25.16;78.05;98184.94;6232982;23;20011;-90
2022/10/17 11:46:36;;;;;;;10.75;1.65;;;;;;;26.78;76.60;98168.31;6233374;23;20008;-91
2022/10/17 11:49:09;;;;;;;11.45;1.60;;;;;;;26.82;76.09;98169.75;6234375;23;20011;-89
2022/10/17 11:51:44;;;;;;;9.93;1.60;;;;;;;26.56;75.43;98170.13;6232091;23;20016;-89
2022/10/17 11:54:17;;;;;;;11.85;1.60;;;;;;;26.03;77.99;98185.13;6233151;23;20032;-89
2022/10/17 11:56:57;;;;;;;12.15;1.83;;;;;;;25.04;83.75;98186.75;6207287;23;20020;-89
2022/10/17 11:59:22;;;;;;;14.02;2.05;;;;;;;24.06;85.18;98185.19;6232313;23;20058;-89
2022/10/17 12:01:56;;;;;;;11.13;1.60;;;;;;;24.08;84.48;98217.91;6229346;23;20110;-89
2022/10/17 12:05:11;;;;;;;11.60;1.73;;;;;;;24.82;84.04;98223.06;6233250;23;20741;-89
2022/10/17 12:08:02;;;;;;;;;;;;;;;25.17;83.54;98224.81;6155091;23;20457;-89